sensor_id;sensor_type;location;lat;lon;timestamp;P1;durP1;ratioP1;P2;durP2;ratioP2
35364;SDS011;21464;48.112;11.530;2023-02-04T00:00:00;1.70;;;1.60;;
35364;SDS011;21464;48.112;11.530;2023-02-04T00:02:26;1.50;;;1.40;;
35364;SDS011;21464;48.112;11.530;2023-02-04T00:04:52;1.87;;;1.20;;
35364;SDS011;21464;48.112;11.530;2023-02-04T00:07:18;0.63;;;0.63;;
35364;SDS011;21464;48.112;11.530;2023-02-04T00:09:45;1.20;;;1.10;;
35364;SDS011;21464;48.112;11.530;2023-02-04T00:12:12;0.87;;;0.87;;
35364;SDS011;21464;48.112;11.530;2023-02-04T00:14:39;0.83;;;0.83;;
35364;SDS011;21464;48.112;11.530;2023-02-04T00:17:05;1.70;;;1.57;;
35364;SDS011;21464;48.112;11.530;2023-02-04T00:19:32;1.43;;;1.33;;
35364;SDS011;21464;48.112;11.530;2023-02-04T00:21:59;1.60;;;1.53;;
35364;SDS011;21464;48.112;11.530;2023-02-04T00:24:25;1.57;;;1.47;;
35364;SDS011;21464;48.112;11.530;2023-02-04T00:26:52;1.87;;;1.77;;
35364;SDS011;21464;48.112;11.530;2023-02-04T00:29:18;1.87;;;1.77;;
35364;SDS011;21464;48.112;11.530;2023-02-04T00:31:44;1.13;;;1.13;;
35364;SDS011;21464;48.112;11.530;2023-02-04T00:34:10;1.53;;;1.50;;
35364;SDS011;21464;48.112;11.530;2023-02-04T00:36:36;2.03;;;1.30;;
35364;SDS011;21464;48.112;11.530;2023-02-04T00:39:03;1.30;;;1.30;;
35364;SDS011;21464;48.112;11.530;2023-02-04T00:41:29;1.00;;;1.00;;
35364;SDS011;21464;48.112;11.530;2023-02-04T00:43:55;0.40;;;0.40;;
35364;SDS011;21464;48.112;11.530;2023-02-04T00:46:21;0.30;;;0.30;;
35364;SDS011;21464;48.112;11.530;2023-02-04T00:48:47;0.40;;;0.40;;
35364;SDS011;21464;48.112;11.530;2023-02-04T00:51:14;0.40;;;0.40;;
35364;SDS011;21464;48.112;11.530;2023-02-04T00:53:40;0.50;;;0.50;;
35364;SDS011;21464;48.112;11.530;2023-02-04T00:56:06;0.40;;;0.40;;
35364;SDS011;21464;48.112;11.530;2023-02-04T00:58:32;0.40;;;0.40;;
35364;SDS011;21464;48.112;11.530;2023-02-04T01:00:59;0.40;;;0.40;;
35364;SDS011;21464;48.112;11.530;2023-02-04T01:03:25;0.40;;;0.40;;
35364;SDS011;21464;48.112;11.530;2023-02-04T01:05:51;0.40;;;0.40;;
35364;SDS011;21464;48.112;11.530;2023-02-04T01:08:17;0.40;;;0.40;;
35364;SDS011;21464;48.112;11.530;2023-02-04T01:10:43;0.40;;;0.40;;
35364;SDS011;21464;48.112;11.530;2023-02-04T01:13:10;0.40;;;0.40;;
35364;SDS011;21464;48.112;11.530;2023-02-04T01:15:36;0.40;;;0.40;;
35364;SDS011;21464;48.112;11.530;2023-02-04T01:18:02;0.40;;;0.40;;
35364;SDS011;21464;48.112;11.530;2023-02-04T01:20:28;0.40;;;0.40;;
35364;SDS011;21464;48.112;11.530;2023-02-04T01:22:55;0.40;;;0.40;;
35364;SDS011;21464;48.112;11.530;2023-02-04T01:25:21;0.40;;;0.40;;
35364;SDS011;21464;48.112;11.530;2023-02-04T01:27:47;0.40;;;0.40;;
35364;SDS011;21464;48.112;11.530;2023-02-04T01:30:14;0.40;;;0.40;;
35364;SDS011;21464;48.112;11.530;2023-02-04T01:32:40;0.30;;;0.30;;
35364;SDS011;21464;48.112;11.530;2023-02-04T01:35:07;0.30;;;0.30;;
35364;SDS011;21464;48.112;11.530;2023-02-04T01:37:33;0.40;;;0.40;;
35364;SDS011;21464;48.112;11.530;2023-02-04T01:39:59;0.40;;;0.40;;
35364;SDS011;21464;48.112;11.530;2023-02-04T01:42:26;0.30;;;0.30;;
35364;SDS011;21464;48.112;11.530;2023-02-04T01:44:52;0.40;;;0.40;;
35364;SDS011;21464;48.112;11.530;2023-02-04T01:47:20;0.30;;;0.30;;
35364;SDS011;21464;48.112;11.530;2023-02-04T01:49:47;0.30;;;0.30;;
35364;SDS011;21464;48.112;11.530;2023-02-04T01:52:16;0.30;;;0.30;;
35364;SDS011;21464;48.112;11.530;2023-02-04T01:54:42;0.40;;;0.40;;
35364;SDS011;21464;48.112;11.530;2023-02-04T01:57:08;0.40;;;0.40;;
35364;SDS011;21464;48.112;11.530;2023-02-04T01:59:39;0.40;;;0.40;;
35364;SDS011;21464;48.112;11.530;2023-02-04T02:02:54;0.40;;;0.40;;
35364;SDS011;21464;48.112;11.530;2023-02-04T02:05:08;0.40;;;0.40;;
35364;SDS011;21464;48.112;11.530;2023-02-04T02:07:36;0.50;;;0.50;;
35364;SDS011;21464;48.112;11.530;2023-02-04T02:10:04;0.40;;;0.40;;
35364;SDS011;21464;48.112;11.530;2023-02-04T02:12:31;0.40;;;0.40;;
35364;SDS011;21464;48.112;11.530;2023-02-04T02:14:58;0.40;;;0.40;;
35364;SDS011;21464;48.112;11.530;2023-02-04T02:17:25;0.40;;;0.40;;
35364;SDS011;21464;48.112;11.530;2023-02-04T02:19:51;0.47;;;0.47;;
35364;SDS011;21464;48.112;11.530;2023-02-04T02:22:35;0.40;;;0.40;;
35364;SDS011;21464;48.112;11.530;2023-02-04T02:25:09;0.40;;;0.40;;
35364;SDS011;21464;48.112;11.530;2023-02-04T02:27:37;0.40;;;0.40;;
35364;SDS011;21464;48.112;11.530;2023-02-04T02:30:03;0.40;;;0.40;;
35364;SDS011;21464;48.112;11.530;2023-02-04T02:32:30;0.40;;;0.40;;
35364;SDS011;21464;48.112;11.530;2023-02-04T02:34:57;0.40;;;0.40;;
35364;SDS011;21464;48.112;11.530;2023-02-04T02:37:23;0.40;;;0.40;;
35364;SDS011;21464;48.112;11.530;2023-02-04T02:39:49;0.40;;;0.40;;
35364;SDS011;21464;48.112;11.530;2023-02-04T02:42:16;0.40;;;0.40;;
35364;SDS011;21464;48.112;11.530;2023-02-04T02:44:43;0.40;;;0.40;;
35364;SDS011;21464;48.112;11.530;2023-02-04T02:47:14;0.40;;;0.40;;
35364;SDS011;21464;48.112;11.530;2023-02-04T02:49:42;0.40;;;0.40;;
35364;SDS011;21464;48.112;11.530;2023-02-04T02:52:10;0.50;;;0.50;;
35364;SDS011;21464;48.112;11.530;2023-02-04T02:54:37;0.40;;;0.40;;
35364;SDS011;21464;48.112;11.530;2023-02-04T02:57:12;0.40;;;0.40;;
35364;SDS011;21464;48.112;11.530;2023-02-04T02:59:44;0.40;;;0.40;;
35364;SDS011;21464;48.112;11.530;2023-02-04T03:02:11;0.40;;;0.40;;
35364;SDS011;21464;48.112;11.530;2023-02-04T03:04:40;0.40;;;0.40;;
35364;SDS011;21464;48.112;11.530;2023-02-04T03:07:10;0.50;;;0.50;;
35364;SDS011;21464;48.112;11.530;2023-02-04T03:09:37;0.40;;;0.40;;
35364;SDS011;21464;48.112;11.530;2023-02-04T03:12:03;0.40;;;0.40;;
35364;SDS011;21464;48.112;11.530;2023-02-04T03:14:31;0.40;;;0.40;;
35364;SDS011;21464;48.112;11.530;2023-02-04T03:16:59;0.43;;;0.43;;
35364;SDS011;21464;48.112;11.530;2023-02-04T03:19:27;0.40;;;0.40;;
35364;SDS011;21464;48.112;11.530;2023-02-04T03:21:54;0.40;;;0.40;;
35364;SDS011;21464;48.112;11.530;2023-02-04T03:24:22;0.40;;;0.40;;
35364;SDS011;21464;48.112;11.530;2023-02-04T03:26:48;0.40;;;0.40;;
35364;SDS011;21464;48.112;11.530;2023-02-04T03:29:14;0.50;;;0.50;;
35364;SDS011;21464;48.112;11.530;2023-02-04T03:31:41;0.40;;;0.40;;
35364;SDS011;21464;48.112;11.530;2023-02-04T03:34:07;0.50;;;0.50;;
35364;SDS011;21464;48.112;11.530;2023-02-04T03:36:33;0.50;;;0.50;;
35364;SDS011;21464;48.112;11.530;2023-02-04T03:39:01;0.40;;;0.40;;
35364;SDS011;21464;48.112;11.530;2023-02-04T03:41:28;0.47;;;0.47;;
35364;SDS011;21464;48.112;11.530;2023-02-04T03:43:54;0.40;;;0.40;;
35364;SDS011;21464;48.112;11.530;2023-02-04T03:46:21;0.40;;;0.40;;
35364;SDS011;21464;48.112;11.530;2023-02-04T03:48:48;0.40;;;0.40;;
35364;SDS011;21464;48.112;11.530;2023-02-04T03:51:15;0.40;;;0.40;;
35364;SDS011;21464;48.112;11.530;2023-02-04T03:53:41;0.40;;;0.40;;
35364;SDS011;21464;48.112;11.530;2023-02-04T03:56:07;0.40;;;0.40;;
35364;SDS011;21464;48.112;11.530;2023-02-04T03:58:35;0.50;;;0.50;;
35364;SDS011;21464;48.112;11.530;2023-02-04T04:01:01;0.40;;;0.40;;
35364;SDS011;21464;48.112;11.530;2023-02-04T04:03:27;0.43;;;0.43;;
35364;SDS011;21464;48.112;11.530;2023-02-04T04:05:54;0.40;;;0.40;;
35364;SDS011;21464;48.112;11.530;2023-02-04T04:08:20;0.50;;;0.50;;
35364;SDS011;21464;48.112;11.530;2023-02-04T04:10:46;0.40;;;0.40;;
35364;SDS011;21464;48.112;11.530;2023-02-04T04:13:12;0.40;;;0.40;;
35364;SDS011;21464;48.112;11.530;2023-02-04T04:15:38;0.40;;;0.40;;
35364;SDS011;21464;48.112;11.530;2023-02-04T04:18:05;0.40;;;0.40;;
35364;SDS011;21464;48.112;11.530;2023-02-04T04:20:31;0.40;;;0.40;;
35364;SDS011;21464;48.112;11.530;2023-02-04T04:22:57;0.40;;;0.40;;
35364;SDS011;21464;48.112;11.530;2023-02-04T04:25:23;0.40;;;0.40;;
35364;SDS011;21464;48.112;11.530;2023-02-04T04:27:50;0.50;;;0.50;;
35364;SDS011;21464;48.112;11.530;2023-02-04T04:30:16;0.40;;;0.40;;
35364;SDS011;21464;48.112;11.530;2023-02-04T04:32:42;0.50;;;0.50;;
35364;SDS011;21464;48.112;11.530;2023-02-04T04:35:09;0.40;;;0.40;;
35364;SDS011;21464;48.112;11.530;2023-02-04T04:37:35;0.50;;;0.50;;
35364;SDS011;21464;48.112;11.530;2023-02-04T04:40:01;0.40;;;0.40;;
35364;SDS011;21464;48.112;11.530;2023-02-04T04:42:27;0.40;;;0.40;;
35364;SDS011;21464;48.112;11.530;2023-02-04T04:44:53;0.40;;;0.40;;
35364;SDS011;21464;48.112;11.530;2023-02-04T04:47:20;0.40;;;0.40;;
35364;SDS011;21464;48.112;11.530;2023-02-04T04:49:46;0.40;;;0.40;;
35364;SDS011;21464;48.112;11.530;2023-02-04T04:52:12;0.50;;;0.50;;
35364;SDS011;21464;48.112;11.530;2023-02-04T04:54:38;0.50;;;0.50;;
35364;SDS011;21464;48.112;11.530;2023-02-04T04:57:04;0.50;;;0.50;;
35364;SDS011;21464;48.112;11.530;2023-02-04T04:59:31;0.50;;;0.50;;
35364;SDS011;21464;48.112;11.530;2023-02-04T05:01:57;0.50;;;0.50;;
35364;SDS011;21464;48.112;11.530;2023-02-04T05:04:23;0.50;;;0.50;;
35364;SDS011;21464;48.112;11.530;2023-02-04T05:06:49;0.50;;;0.50;;
35364;SDS011;21464;48.112;11.530;2023-02-04T05:09:15;0.50;;;0.50;;
35364;SDS011;21464;48.112;11.530;2023-02-04T05:11:42;0.50;;;0.50;;
35364;SDS011;21464;48.112;11.530;2023-02-04T05:14:08;0.50;;;0.50;;
35364;SDS011;21464;48.112;11.530;2023-02-04T05:16:34;0.50;;;0.50;;
35364;SDS011;21464;48.112;11.530;2023-02-04T05:19:00;0.50;;;0.50;;
35364;SDS011;21464;48.112;11.530;2023-02-04T05:21:27;0.50;;;0.50;;
35364;SDS011;21464;48.112;11.530;2023-02-04T05:23:53;0.40;;;0.40;;
35364;SDS011;21464;48.112;11.530;2023-02-04T05:26:19;0.50;;;0.50;;
35364;SDS011;21464;48.112;11.530;2023-02-04T05:28:45;0.50;;;0.50;;
35364;SDS011;21464;48.112;11.530;2023-02-04T05:31:12;0.60;;;0.60;;
35364;SDS011;21464;48.112;11.530;2023-02-04T05:33:38;0.57;;;0.57;;
35364;SDS011;21464;48.112;11.530;2023-02-04T05:36:04;0.50;;;0.50;;
35364;SDS011;21464;48.112;11.530;2023-02-04T05:38:30;0.40;;;0.40;;
35364;SDS011;21464;48.112;11.530;2023-02-04T05:40:56;0.50;;;0.50;;
35364;SDS011;21464;48.112;11.530;2023-02-04T05:43:23;0.30;;;0.30;;
35364;SDS011;21464;48.112;11.530;2023-02-04T05:45:49;0.50;;;0.50;;
35364;SDS011;21464;48.112;11.530;2023-02-04T05:48:15;0.50;;;0.50;;
35364;SDS011;21464;48.112;11.530;2023-02-04T05:50:41;0.50;;;0.50;;
35364;SDS011;21464;48.112;11.530;2023-02-04T05:53:08;0.40;;;0.40;;
35364;SDS011;21464;48.112;11.530;2023-02-04T05:55:34;0.50;;;0.50;;
35364;SDS011;21464;48.112;11.530;2023-02-04T05:58:01;0.43;;;0.43;;
35364;SDS011;21464;48.112;11.530;2023-02-04T06:00:27;0.50;;;0.50;;
35364;SDS011;21464;48.112;11.530;2023-02-04T06:02:53;0.50;;;0.50;;
35364;SDS011;21464;48.112;11.530;2023-02-04T06:05:19;0.50;;;0.50;;
35364;SDS011;21464;48.112;11.530;2023-02-04T06:07:48;0.40;;;0.40;;
35364;SDS011;21464;48.112;11.530;2023-02-04T06:10:14;0.50;;;0.50;;
35364;SDS011;21464;48.112;11.530;2023-02-04T06:12:41;0.50;;;0.50;;
35364;SDS011;21464;48.112;11.530;2023-02-04T06:15:07;0.50;;;0.50;;
35364;SDS011;21464;48.112;11.530;2023-02-04T06:17:34;0.50;;;0.50;;
35364;SDS011;21464;48.112;11.530;2023-02-04T06:20:00;0.50;;;0.50;;
35364;SDS011;21464;48.112;11.530;2023-02-04T06:22:27;0.50;;;0.50;;
35364;SDS011;21464;48.112;11.530;2023-02-04T06:24:53;0.43;;;0.43;;
35364;SDS011;21464;48.112;11.530;2023-02-04T06:27:26;0.50;;;0.50;;
35364;SDS011;21464;48.112;11.530;2023-02-04T06:29:52;0.50;;;0.50;;
35364;SDS011;21464;48.112;11.530;2023-02-04T06:32:21;0.50;;;0.50;;
35364;SDS011;21464;48.112;11.530;2023-02-04T06:34:48;0.50;;;0.50;;
35364;SDS011;21464;48.112;11.530;2023-02-04T06:37:14;0.50;;;0.50;;
35364;SDS011;21464;48.112;11.530;2023-02-04T06:39:44;0.40;;;0.40;;
35364;SDS011;21464;48.112;11.530;2023-02-04T06:42:11;0.50;;;0.50;;
35364;SDS011;21464;48.112;11.530;2023-02-04T06:44:37;0.50;;;0.50;;
35364;SDS011;21464;48.112;11.530;2023-02-04T06:47:03;0.50;;;0.50;;
35364;SDS011;21464;48.112;11.530;2023-02-04T06:49:30;0.50;;;0.50;;
35364;SDS011;21464;48.112;11.530;2023-02-04T06:51:56;0.50;;;0.50;;
35364;SDS011;21464;48.112;11.530;2023-02-04T06:54:25;0.50;;;0.50;;
35364;SDS011;21464;48.112;11.530;2023-02-04T06:56:51;0.50;;;0.50;;
35364;SDS011;21464;48.112;11.530;2023-02-04T06:59:18;0.50;;;0.50;;
35364;SDS011;21464;48.112;11.530;2023-02-04T07:01:44;0.50;;;0.50;;
35364;SDS011;21464;48.112;11.530;2023-02-04T07:04:10;0.40;;;0.40;;
35364;SDS011;21464;48.112;11.530;2023-02-04T07:06:36;0.60;;;0.60;;
35364;SDS011;21464;48.112;11.530;2023-02-04T07:09:02;0.40;;;0.40;;
35364;SDS011;21464;48.112;11.530;2023-02-04T07:11:28;0.40;;;0.40;;
35364;SDS011;21464;48.112;11.530;2023-02-04T07:13:55;0.63;;;0.63;;
35364;SDS011;21464;48.112;11.530;2023-02-04T07:16:21;0.40;;;0.40;;
35364;SDS011;21464;48.112;11.530;2023-02-04T07:18:47;0.40;;;0.40;;
35364;SDS011;21464;48.112;11.530;2023-02-04T07:21:13;0.40;;;0.40;;
35364;SDS011;21464;48.112;11.530;2023-02-04T07:23:40;0.30;;;0.30;;
35364;SDS011;21464;48.112;11.530;2023-02-04T07:26:06;0.40;;;0.40;;
35364;SDS011;21464;48.112;11.530;2023-02-04T07:28:32;0.40;;;0.40;;
35364;SDS011;21464;48.112;11.530;2023-02-04T07:30:58;0.40;;;0.40;;
35364;SDS011;21464;48.112;11.530;2023-02-04T07:33:24;0.40;;;0.40;;
35364;SDS011;21464;48.112;11.530;2023-02-04T07:35:51;0.40;;;0.40;;
35364;SDS011;21464;48.112;11.530;2023-02-04T07:38:17;0.30;;;0.30;;
35364;SDS011;21464;48.112;11.530;2023-02-04T07:40:43;0.30;;;0.30;;
35364;SDS011;21464;48.112;11.530;2023-02-04T07:43:09;0.30;;;0.30;;
35364;SDS011;21464;48.112;11.530;2023-02-04T07:45:37;0.40;;;0.40;;
35364;SDS011;21464;48.112;11.530;2023-02-04T07:48:03;0.30;;;0.30;;
35364;SDS011;21464;48.112;11.530;2023-02-04T07:50:30;0.30;;;0.30;;
35364;SDS011;21464;48.112;11.530;2023-02-04T07:52:56;0.30;;;0.30;;
35364;SDS011;21464;48.112;11.530;2023-02-04T07:55:22;0.30;;;0.30;;
35364;SDS011;21464;48.112;11.530;2023-02-04T07:57:48;0.40;;;0.40;;
35364;SDS011;21464;48.112;11.530;2023-02-04T08:00:14;0.40;;;0.40;;
35364;SDS011;21464;48.112;11.530;2023-02-04T08:02:41;0.40;;;0.40;;
35364;SDS011;21464;48.112;11.530;2023-02-04T08:05:08;0.40;;;0.40;;
35364;SDS011;21464;48.112;11.530;2023-02-04T08:07:34;0.40;;;0.40;;
35364;SDS011;21464;48.112;11.530;2023-02-04T08:10:01;0.30;;;0.30;;
35364;SDS011;21464;48.112;11.530;2023-02-04T08:12:28;0.30;;;0.30;;
35364;SDS011;21464;48.112;11.530;2023-02-04T08:14:55;0.37;;;0.37;;
35364;SDS011;21464;48.112;11.530;2023-02-04T08:17:21;0.40;;;0.40;;
35364;SDS011;21464;48.112;11.530;2023-02-04T08:19:47;0.30;;;0.30;;
35364;SDS011;21464;48.112;11.530;2023-02-04T08:22:13;0.37;;;0.37;;
35364;SDS011;21464;48.112;11.530;2023-02-04T08:24:40;0.30;;;0.30;;
35364;SDS011;21464;48.112;11.530;2023-02-04T08:27:06;0.30;;;0.30;;
35364;SDS011;21464;48.112;11.530;2023-02-04T08:29:32;0.40;;;0.40;;
35364;SDS011;21464;48.112;11.530;2023-02-04T08:31:58;0.40;;;0.40;;
35364;SDS011;21464;48.112;11.530;2023-02-04T08:34:24;0.40;;;0.40;;
35364;SDS011;21464;48.112;11.530;2023-02-04T08:36:50;0.30;;;0.30;;
35364;SDS011;21464;48.112;11.530;2023-02-04T08:39:17;0.40;;;0.40;;
35364;SDS011;21464;48.112;11.530;2023-02-04T08:41:43;0.40;;;0.40;;
35364;SDS011;21464;48.112;11.530;2023-02-04T08:44:09;0.40;;;0.40;;
35364;SDS011;21464;48.112;11.530;2023-02-04T08:46:35;0.40;;;0.40;;
35364;SDS011;21464;48.112;11.530;2023-02-04T08:49:01;0.30;;;0.30;;
35364;SDS011;21464;48.112;11.530;2023-02-04T08:51:28;0.40;;;0.40;;
35364;SDS011;21464;48.112;11.530;2023-02-04T08:53:54;0.40;;;0.40;;
35364;SDS011;21464;48.112;11.530;2023-02-04T08:56:20;0.30;;;0.30;;
35364;SDS011;21464;48.112;11.530;2023-02-04T08:58:47;0.30;;;0.30;;
35364;SDS011;21464;48.112;11.530;2023-02-04T09:01:13;0.30;;;0.30;;
35364;SDS011;21464;48.112;11.530;2023-02-04T09:03:40;0.30;;;0.30;;
35364;SDS011;21464;48.112;11.530;2023-02-04T09:06:06;0.30;;;0.30;;
35364;SDS011;21464;48.112;11.530;2023-02-04T09:08:33;0.40;;;0.40;;
35364;SDS011;21464;48.112;11.530;2023-02-04T09:10:59;0.37;;;0.37;;
35364;SDS011;21464;48.112;11.530;2023-02-04T09:13:26;0.30;;;0.30;;
35364;SDS011;21464;48.112;11.530;2023-02-04T09:15:53;0.40;;;0.40;;
35364;SDS011;21464;48.112;11.530;2023-02-04T09:18:19;0.30;;;0.30;;
35364;SDS011;21464;48.112;11.530;2023-02-04T09:20:47;0.40;;;0.40;;
35364;SDS011;21464;48.112;11.530;2023-02-04T09:23:14;0.30;;;0.30;;
35364;SDS011;21464;48.112;11.530;2023-02-04T09:25:41;0.30;;;0.30;;
35364;SDS011;21464;48.112;11.530;2023-02-04T09:28:09;0.40;;;0.40;;
35364;SDS011;21464;48.112;11.530;2023-02-04T09:30:40;0.40;;;0.40;;
35364;SDS011;21464;48.112;11.530;2023-02-04T09:33:07;0.30;;;0.30;;
35364;SDS011;21464;48.112;11.530;2023-02-04T09:35:34;0.30;;;0.30;;
35364;SDS011;21464;48.112;11.530;2023-02-04T09:38:00;0.30;;;0.30;;
35364;SDS011;21464;48.112;11.530;2023-02-04T09:40:27;0.30;;;0.30;;
35364;SDS011;21464;48.112;11.530;2023-02-04T09:42:55;11.90;;;3.70;;
35364;SDS011;21464;48.112;11.530;2023-02-04T09:45:23;9.80;;;3.53;;
35364;SDS011;21464;48.112;11.530;2023-02-04T09:47:52;11.67;;;3.63;;
35364;SDS011;21464;48.112;11.530;2023-02-04T09:50:20;11.20;;;3.40;;
35364;SDS011;21464;48.112;11.530;2023-02-04T09:52:48;8.40;;;3.17;;
35364;SDS011;21464;48.112;11.530;2023-02-04T09:55:17;10.30;;;3.27;;
35364;SDS011;21464;48.112;11.530;2023-02-04T09:57:44;11.73;;;3.80;;
35364;SDS011;21464;48.112;11.530;2023-02-04T10:00:16;8.83;;;3.40;;
35364;SDS011;21464;48.112;11.530;2023-02-04T10:02:47;8.77;;;3.07;;
35364;SDS011;21464;48.112;11.530;2023-02-04T10:05:14;7.20;;;3.07;;
35364;SDS011;21464;48.112;11.530;2023-02-04T10:07:42;11.27;;;3.73;;
35364;SDS011;21464;48.112;11.530;2023-02-04T10:10:17;9.10;;;2.90;;
35364;SDS011;21464;48.112;11.530;2023-02-04T10:12:45;6.23;;;2.70;;
35364;SDS011;21464;48.112;11.530;2023-02-04T10:15:12;7.97;;;2.93;;
35364;SDS011;21464;48.112;11.530;2023-02-04T10:17:40;7.20;;;3.00;;
35364;SDS011;21464;48.112;11.530;2023-02-04T10:20:17;10.90;;;3.83;;
35364;SDS011;21464;48.112;11.530;2023-02-04T10:22:45;11.57;;;3.30;;
35364;SDS011;21464;48.112;11.530;2023-02-04T10:25:13;9.97;;;3.13;;
35364;SDS011;21464;48.112;11.530;2023-02-04T10:28:14;12.77;;;3.53;;
35364;SDS011;21464;48.112;11.530;2023-02-04T10:30:40;12.30;;;2.90;;
35364;SDS011;21464;48.112;11.530;2023-02-04T10:33:26;11.63;;;2.90;;
35364;SDS011;21464;48.112;11.530;2023-02-04T10:35:53;8.13;;;3.37;;
35364;SDS011;21464;48.112;11.530;2023-02-04T10:38:21;13.93;;;3.33;;
35364;SDS011;21464;48.112;11.530;2023-02-04T10:40:58;8.80;;;3.60;;
35364;SDS011;21464;48.112;11.530;2023-02-04T10:43:28;7.80;;;3.30;;
35364;SDS011;21464;48.112;11.530;2023-02-04T10:45:56;9.17;;;3.00;;
35364;SDS011;21464;48.112;11.530;2023-02-04T10:48:24;8.60;;;2.90;;
35364;SDS011;21464;48.112;11.530;2023-02-04T10:50:50;6.17;;;2.37;;
35364;SDS011;21464;48.112;11.530;2023-02-04T10:53:18;9.57;;;3.20;;
35364;SDS011;21464;48.112;11.530;2023-02-04T10:56:05;4.83;;;2.47;;
35364;SDS011;21464;48.112;11.530;2023-02-04T10:58:40;4.20;;;2.20;;
35364;SDS011;21464;48.112;11.530;2023-02-04T11:01:10;7.27;;;2.40;;
35364;SDS011;21464;48.112;11.530;2023-02-04T11:03:38;6.93;;;2.63;;
35364;SDS011;21464;48.112;11.530;2023-02-04T11:06:23;5.43;;;2.73;;
35364;SDS011;21464;48.112;11.530;2023-02-04T11:08:50;8.13;;;2.60;;
35364;SDS011;21464;48.112;11.530;2023-02-04T11:11:19;3.90;;;2.70;;
35364;SDS011;21464;48.112;11.530;2023-02-04T11:21:25;4.50;;;2.30;;
35364;SDS011;21464;48.112;11.530;2023-02-04T11:26:46;2.20;;;2.00;;
35364;SDS011;21464;48.112;11.530;2023-02-04T11:37:17;5.37;;;1.90;;
35364;SDS011;21464;48.112;11.530;2023-02-04T11:39:40;4.43;;;1.67;;
35364;SDS011;21464;48.112;11.530;2023-02-04T11:47:39;2.60;;;1.83;;
35364;SDS011;21464;48.112;11.530;2023-02-04T11:50:15;5.70;;;1.80;;
35364;SDS011;21464;48.112;11.530;2023-02-04T11:52:44;4.33;;;3.20;;
35364;SDS011;21464;48.112;11.530;2023-02-04T11:55:11;2.33;;;1.80;;
35364;SDS011;21464;48.112;11.530;2023-02-04T11:57:38;2.93;;;1.50;;
35364;SDS011;21464;48.112;11.530;2023-02-04T12:00:13;3.70;;;2.30;;
35364;SDS011;21464;48.112;11.530;2023-02-04T12:02:44;2.07;;;1.57;;
35364;SDS011;21464;48.112;11.530;2023-02-04T12:05:14;2.27;;;1.73;;
35364;SDS011;21464;48.112;11.530;2023-02-04T12:07:41;1.90;;;1.50;;
35364;SDS011;21464;48.112;11.530;2023-02-04T12:10:12;2.70;;;1.27;;
35364;SDS011;21464;48.112;11.530;2023-02-04T12:13:10;1.57;;;1.40;;
35364;SDS011;21464;48.112;11.530;2023-02-04T12:15:36;2.43;;;1.40;;
35364;SDS011;21464;48.112;11.530;2023-02-04T12:18:09;1.53;;;1.30;;
35364;SDS011;21464;48.112;11.530;2023-02-04T12:20:41;2.43;;;1.50;;
35364;SDS011;21464;48.112;11.530;2023-02-04T12:23:07;2.57;;;1.60;;
35364;SDS011;21464;48.112;11.530;2023-02-04T12:25:33;1.60;;;1.50;;
35364;SDS011;21464;48.112;11.530;2023-02-04T12:28:00;2.43;;;1.57;;
35364;SDS011;21464;48.112;11.530;2023-02-04T12:30:26;1.57;;;1.30;;
35364;SDS011;21464;48.112;11.530;2023-02-04T12:32:53;5.03;;;2.23;;
35364;SDS011;21464;48.112;11.530;2023-02-04T12:35:19;1.40;;;1.30;;
35364;SDS011;21464;48.112;11.530;2023-02-04T12:37:46;2.17;;;1.40;;
35364;SDS011;21464;48.112;11.530;2023-02-04T12:40:16;2.90;;;1.50;;
35364;SDS011;21464;48.112;11.530;2023-02-04T12:42:43;2.37;;;1.40;;
35364;SDS011;21464;48.112;11.530;2023-02-04T12:45:10;2.37;;;1.20;;
35364;SDS011;21464;48.112;11.530;2023-02-04T12:47:37;2.87;;;1.60;;
35364;SDS011;21464;48.112;11.530;2023-02-04T12:50:03;2.83;;;1.30;;
35364;SDS011;21464;48.112;11.530;2023-02-04T12:52:30;2.37;;;1.77;;
35364;SDS011;21464;48.112;11.530;2023-02-04T12:54:56;3.70;;;1.80;;
35364;SDS011;21464;48.112;11.530;2023-02-04T12:57:24;1.50;;;1.40;;
35364;SDS011;21464;48.112;11.530;2023-02-04T12:59:51;2.20;;;1.80;;
35364;SDS011;21464;48.112;11.530;2023-02-04T13:02:17;2.20;;;1.77;;
35364;SDS011;21464;48.112;11.530;2023-02-04T13:04:43;2.10;;;2.00;;
35364;SDS011;21464;48.112;11.530;2023-02-04T13:07:09;2.97;;;1.50;;
35364;SDS011;21464;48.112;11.530;2023-02-04T13:09:35;3.40;;;1.83;;
35364;SDS011;21464;48.112;11.530;2023-02-04T13:12:02;2.37;;;1.70;;
35364;SDS011;21464;48.112;11.530;2023-02-04T13:14:28;1.87;;;1.67;;
35364;SDS011;21464;48.112;11.530;2023-02-04T13:16:55;4.80;;;1.70;;
35364;SDS011;21464;48.112;11.530;2023-02-04T13:19:21;2.90;;;1.67;;
35364;SDS011;21464;48.112;11.530;2023-02-04T13:21:47;2.93;;;1.80;;
35364;SDS011;21464;48.112;11.530;2023-02-04T13:24:13;1.60;;;1.40;;
35364;SDS011;21464;48.112;11.530;2023-02-04T13:26:39;2.40;;;1.77;;
35364;SDS011;21464;48.112;11.530;2023-02-04T13:29:06;3.03;;;1.80;;
35364;SDS011;21464;48.112;11.530;2023-02-04T13:31:32;3.43;;;2.20;;
35364;SDS011;21464;48.112;11.530;2023-02-04T13:33:58;2.03;;;1.77;;
35364;SDS011;21464;48.112;11.530;2023-02-04T13:36:24;4.23;;;1.90;;
35364;SDS011;21464;48.112;11.530;2023-02-04T13:38:52;2.47;;;1.90;;
35364;SDS011;21464;48.112;11.530;2023-02-04T13:41:18;4.10;;;2.37;;
35364;SDS011;21464;48.112;11.530;2023-02-04T13:43:44;3.93;;;2.30;;
35364;SDS011;21464;48.112;11.530;2023-02-04T13:46:11;2.77;;;1.60;;
35364;SDS011;21464;48.112;11.530;2023-02-04T13:48:37;2.20;;;1.53;;
35364;SDS011;21464;48.112;11.530;2023-02-04T13:51:03;4.13;;;2.00;;
35364;SDS011;21464;48.112;11.530;2023-02-04T13:53:31;3.07;;;2.10;;
35364;SDS011;21464;48.112;11.530;2023-02-04T13:55:57;3.27;;;2.00;;
35364;SDS011;21464;48.112;11.530;2023-02-04T13:58:23;4.73;;;2.10;;
35364;SDS011;21464;48.112;11.530;2023-02-04T14:00:50;2.83;;;2.03;;
35364;SDS011;21464;48.112;11.530;2023-02-04T14:03:16;3.70;;;2.03;;
35364;SDS011;21464;48.112;11.530;2023-02-04T14:05:42;3.40;;;2.30;;
35364;SDS011;21464;48.112;11.530;2023-02-04T14:08:08;3.17;;;2.20;;
35364;SDS011;21464;48.112;11.530;2023-02-04T14:10:35;4.67;;;2.57;;
35364;SDS011;21464;48.112;11.530;2023-02-04T14:13:01;2.80;;;2.50;;
35364;SDS011;21464;48.112;11.530;2023-02-04T14:15:27;3.83;;;2.67;;
35364;SDS011;21464;48.112;11.530;2023-02-04T14:17:53;2.70;;;2.50;;
35364;SDS011;21464;48.112;11.530;2023-02-04T14:20:20;2.50;;;2.10;;
35364;SDS011;21464;48.112;11.530;2023-02-04T14:22:46;2.10;;;1.80;;
35364;SDS011;21464;48.112;11.530;2023-02-04T14:25:12;1.80;;;1.70;;
35364;SDS011;21464;48.112;11.530;2023-02-04T14:27:38;2.07;;;1.80;;
35364;SDS011;21464;48.112;11.530;2023-02-04T14:30:17;1.73;;;1.63;;
35364;SDS011;21464;48.112;11.530;2023-02-04T14:32:45;2.60;;;1.50;;
35364;SDS011;21464;48.112;11.530;2023-02-04T14:35:11;2.80;;;1.83;;
35364;SDS011;21464;48.112;11.530;2023-02-04T14:37:38;2.07;;;1.93;;
35364;SDS011;21464;48.112;11.530;2023-02-04T14:40:04;2.53;;;1.80;;
35364;SDS011;21464;48.112;11.530;2023-02-04T14:42:31;2.37;;;1.57;;
35364;SDS011;21464;48.112;11.530;2023-02-04T14:44:57;1.90;;;1.70;;
35364;SDS011;21464;48.112;11.530;2023-02-04T14:47:24;1.70;;;1.50;;
35364;SDS011;21464;48.112;11.530;2023-02-04T14:49:50;2.03;;;1.83;;
35364;SDS011;21464;48.112;11.530;2023-02-04T14:52:16;2.70;;;1.80;;
35364;SDS011;21464;48.112;11.530;2023-02-04T14:54:43;1.90;;;1.80;;
35364;SDS011;21464;48.112;11.530;2023-02-04T14:57:09;1.70;;;1.30;;